sensor_id;sensor_type;location;lat;lon;timestamp;temperature;humidity
10304;DHT22;5197;48.152;8.590;2023-07-13T00:01:55;17.80;2.80
10304;DHT22;5197;48.152;8.590;2023-07-13T00:04:24;17.80;2.80
10304;DHT22;5197;48.152;8.590;2023-07-13T00:06:56;17.90;2.80
10304;DHT22;5197;48.152;8.590;2023-07-13T00:09:25;17.90;2.60
10304;DHT22;5197;48.152;8.590;2023-07-13T00:11:54;18.00;1.90
10304;DHT22;5197;48.152;8.590;2023-07-13T00:14:22;18.00;1.20
10304;DHT22;5197;48.152;8.590;2023-07-13T00:16:49;18.00;1.00
10304;DHT22;5197;48.152;8.590;2023-07-13T00:19:16;18.00;1.00
10304;DHT22;5197;48.152;8.590;2023-07-13T00:21:44;18.00;1.00
10304;DHT22;5197;48.152;8.590;2023-07-13T00:24:14;19.40;1.00
10304;DHT22;5197;48.152;8.590;2023-07-13T00:26:42;17.90;1.00
10304;DHT22;5197;48.152;8.590;2023-07-13T00:29:13;17.80;1.00
10304;DHT22;5197;48.152;8.590;2023-07-13T00:31:40;17.70;1.00
10304;DHT22;5197;48.152;8.590;2023-07-13T00:34:07;17.70;1.00
10304;DHT22;5197;48.152;8.590;2023-07-13T00:36:34;17.60;1.00
10304;DHT22;5197;48.152;8.590;2023-07-13T00:39:02;17.50;1.00
10304;DHT22;5197;48.152;8.590;2023-07-13T00:41:31;17.40;1.00
10304;DHT22;5197;48.152;8.590;2023-07-13T00:44:04;17.40;1.00
10304;DHT22;5197;48.152;8.590;2023-07-13T00:46:33;17.30;1.00
10304;DHT22;5197;48.152;8.590;2023-07-13T00:49:06;17.30;1.00
10304;DHT22;5197;48.152;8.590;2023-07-13T00:51:37;17.40;1.00
10304;DHT22;5197;48.152;8.590;2023-07-13T00:54:09;17.40;1.00
10304;DHT22;5197;48.152;8.590;2023-07-13T00:56:39;17.40;1.00
10304;DHT22;5197;48.152;8.590;2023-07-13T00:59:08;17.50;1.00
10304;DHT22;5197;48.152;8.590;2023-07-13T01:01:37;17.70;1.00
10304;DHT22;5197;48.152;8.590;2023-07-13T01:04:05;17.60;1.00
10304;DHT22;5197;48.152;8.590;2023-07-13T01:06:36;17.60;1.00
10304;DHT22;5197;48.152;8.590;2023-07-13T01:09:05;17.60;1.00
10304;DHT22;5197;48.152;8.590;2023-07-13T01:11:33;17.60;1.00
10304;DHT22;5197;48.152;8.590;2023-07-13T01:14:03;17.60;1.00
10304;DHT22;5197;48.152;8.590;2023-07-13T01:16:35;17.60;1.00
10304;DHT22;5197;48.152;8.590;2023-07-13T01:19:24;17.60;1.00
10304;DHT22;5197;48.152;8.590;2023-07-13T01:22:08;17.60;1.00
10304;DHT22;5197;48.152;8.590;2023-07-13T01:24:36;17.60;1.00
10304;DHT22;5197;48.152;8.590;2023-07-13T01:27:04;17.50;1.00
10304;DHT22;5197;48.152;8.590;2023-07-13T01:29:35;17.40;1.00
10304;DHT22;5197;48.152;8.590;2023-07-13T01:32:04;17.30;1.00
10304;DHT22;5197;48.152;8.590;2023-07-13T01:34:31;17.30;1.00
10304;DHT22;5197;48.152;8.590;2023-07-13T01:36:58;17.30;1.00
10304;DHT22;5197;48.152;8.590;2023-07-13T01:39:25;17.20;1.00
10304;DHT22;5197;48.152;8.590;2023-07-13T01:41:52;17.20;1.00
10304;DHT22;5197;48.152;8.590;2023-07-13T01:44:19;17.10;1.20
10304;DHT22;5197;48.152;8.590;2023-07-13T01:46:46;17.10;1.70
10304;DHT22;5197;48.152;8.590;2023-07-13T01:49:13;17.00;1.50
10304;DHT22;5197;48.152;8.590;2023-07-13T01:51:40;17.00;1.30
10304;DHT22;5197;48.152;8.590;2023-07-13T01:54:07;17.00;1.60
10304;DHT22;5197;48.152;8.590;2023-07-13T01:56:34;17.00;1.40
10304;DHT22;5197;48.152;8.590;2023-07-13T01:59:02;17.00;1.50
10304;DHT22;5197;48.152;8.590;2023-07-13T02:01:29;17.00;1.50
10304;DHT22;5197;48.152;8.590;2023-07-13T02:03:56;17.00;2.00
10304;DHT22;5197;48.152;8.590;2023-07-13T02:06:23;17.00;2.20
10304;DHT22;5197;48.152;8.590;2023-07-13T02:08:50;16.90;2.20
10304;DHT22;5197;48.152;8.590;2023-07-13T02:11:17;16.90;2.20
10304;DHT22;5197;48.152;8.590;2023-07-13T02:13:44;16.80;2.10
10304;DHT22;5197;48.152;8.590;2023-07-13T02:16:11;16.70;2.00
10304;DHT22;5197;48.152;8.590;2023-07-13T02:18:39;16.70;2.00
10304;DHT22;5197;48.152;8.590;2023-07-13T02:21:06;16.60;1.90
10304;DHT22;5197;48.152;8.590;2023-07-13T02:23:33;16.60;2.00
10304;DHT22;5197;48.152;8.590;2023-07-13T02:26:01;16.60;1.90
10304;DHT22;5197;48.152;8.590;2023-07-13T02:28:29;16.50;1.90
10304;DHT22;5197;48.152;8.590;2023-07-13T02:31:07;16.50;1.90
10304;DHT22;5197;48.152;8.590;2023-07-13T02:33:35;16.40;1.80
10304;DHT22;5197;48.152;8.590;2023-07-13T02:36:02;16.20;1.70
10304;DHT22;5197;48.152;8.590;2023-07-13T02:38:33;16.20;2.20
10304;DHT22;5197;48.152;8.590;2023-07-13T02:41:00;16.10;2.40
10304;DHT22;5197;48.152;8.590;2023-07-13T02:43:28;16.20;3.00
10304;DHT22;5197;48.152;8.590;2023-07-13T02:45:56;16.30;1.90
10304;DHT22;5197;48.152;8.590;2023-07-13T02:48:23;16.30;1.80
10304;DHT22;5197;48.152;8.590;2023-07-13T02:50:50;16.20;1.80
10304;DHT22;5197;48.152;8.590;2023-07-13T02:53:17;16.20;1.80
10304;DHT22;5197;48.152;8.590;2023-07-13T02:55:44;16.20;2.20
10304;DHT22;5197;48.152;8.590;2023-07-13T02:58:14;16.20;2.20
10304;DHT22;5197;48.152;8.590;2023-07-13T03:00:45;16.20;1.70
10304;DHT22;5197;48.152;8.590;2023-07-13T03:03:14;16.20;2.80
10304;DHT22;5197;48.152;8.590;2023-07-13T03:05:43;16.20;1.80
10304;DHT22;5197;48.152;8.590;2023-07-13T03:08:12;16.20;2.10
10304;DHT22;5197;48.152;8.590;2023-07-13T03:10:39;16.20;1.70
10304;DHT22;5197;48.152;8.590;2023-07-13T03:13:07;16.10;1.80
10304;DHT22;5197;48.152;8.590;2023-07-13T03:15:34;16.10;1.70
10304;DHT22;5197;48.152;8.590;2023-07-13T03:18:01;16.10;1.80
10304;DHT22;5197;48.152;8.590;2023-07-13T03:20:28;16.00;2.20
10304;DHT22;5197;48.152;8.590;2023-07-13T03:22:55;16.00;2.30
10304;DHT22;5197;48.152;8.590;2023-07-13T03:25:22;16.00;2.60
10304;DHT22;5197;48.152;8.590;2023-07-13T03:27:49;15.90;2.90
10304;DHT22;5197;48.152;8.590;2023-07-13T03:30:16;15.80;3.10
10304;DHT22;5197;48.152;8.590;2023-07-13T03:32:43;15.80;3.30
10304;DHT22;5197;48.152;8.590;2023-07-13T03:35:10;15.70;3.20
10304;DHT22;5197;48.152;8.590;2023-07-13T03:37:38;15.70;3.30
10304;DHT22;5197;48.152;8.590;2023-07-13T03:40:10;15.60;3.10
10304;DHT22;5197;48.152;8.590;2023-07-13T03:42:37;15.60;2.70
10304;DHT22;5197;48.152;8.590;2023-07-13T03:45:05;15.70;2.70
10304;DHT22;5197;48.152;8.590;2023-07-13T03:47:32;15.70;2.50
10304;DHT22;5197;48.152;8.590;2023-07-13T03:49:59;15.70;2.60
10304;DHT22;5197;48.152;8.590;2023-07-13T03:52:26;15.70;2.60
10304;DHT22;5197;48.152;8.590;2023-07-13T03:54:53;15.80;2.60
10304;DHT22;5197;48.152;8.590;2023-07-13T03:57:20;15.90;2.60
10304;DHT22;5197;48.152;8.590;2023-07-13T03:59:47;15.70;2.60
10304;DHT22;5197;48.152;8.590;2023-07-13T04:02:14;15.70;3.00
10304;DHT22;5197;48.152;8.590;2023-07-13T04:04:41;15.70;2.90
10304;DHT22;5197;48.152;8.590;2023-07-13T04:07:08;15.80;2.80
10304;DHT22;5197;48.152;8.590;2023-07-13T04:09:35;15.80;3.00
10304;DHT22;5197;48.152;8.590;2023-07-13T04:12:03;15.80;3.00
10304;DHT22;5197;48.152;8.590;2023-07-13T04:14:30;15.80;3.00
10304;DHT22;5197;48.152;8.590;2023-07-13T04:16:57;15.80;3.30
10304;DHT22;5197;48.152;8.590;2023-07-13T04:19:24;15.80;3.10
10304;DHT22;5197;48.152;8.590;2023-07-13T04:21:51;15.80;3.00
10304;DHT22;5197;48.152;8.590;2023-07-13T04:24:18;15.80;2.80
10304;DHT22;5197;48.152;8.590;2023-07-13T04:26:46;15.90;2.80
10304;DHT22;5197;48.152;8.590;2023-07-13T04:29:13;15.90;3.40
10304;DHT22;5197;48.152;8.590;2023-07-13T04:31:40;15.80;3.80
10304;DHT22;5197;48.152;8.590;2023-07-13T04:34:07;15.80;4.30
10304;DHT22;5197;48.152;8.590;2023-07-13T04:36:34;15.70;4.70
10304;DHT22;5197;48.152;8.590;2023-07-13T04:39:04;15.80;4.90
10304;DHT22;5197;48.152;8.590;2023-07-13T04:41:31;15.80;4.90
10304;DHT22;5197;48.152;8.590;2023-07-13T04:43:58;15.80;4.90
10304;DHT22;5197;48.152;8.590;2023-07-13T04:46:25;15.90;4.80
10304;DHT22;5197;48.152;8.590;2023-07-13T04:48:52;16.00;4.60
10304;DHT22;5197;48.152;8.590;2023-07-13T04:51:20;16.00;4.60
10304;DHT22;5197;48.152;8.590;2023-07-13T04:53:47;16.00;4.60
10304;DHT22;5197;48.152;8.590;2023-07-13T04:56:15;16.10;4.70
10304;DHT22;5197;48.152;8.590;2023-07-13T04:58:42;16.20;5.10
10304;DHT22;5197;48.152;8.590;2023-07-13T05:01:09;16.20;5.40
10304;DHT22;5197;48.152;8.590;2023-07-13T05:03:37;16.20;5.40
10304;DHT22;5197;48.152;8.590;2023-07-13T05:06:06;16.30;5.40
10304;DHT22;5197;48.152;8.590;2023-07-13T05:08:34;16.30;5.20
10304;DHT22;5197;48.152;8.590;2023-07-13T05:11:02;16.30;5.20
10304;DHT22;5197;48.152;8.590;2023-07-13T05:13:30;16.30;5.30
10304;DHT22;5197;48.152;8.590;2023-07-13T05:16:02;16.30;5.20
10304;DHT22;5197;48.152;8.590;2023-07-13T05:18:30;16.30;5.20
10304;DHT22;5197;48.152;8.590;2023-07-13T05:21:00;16.40;5.70
10304;DHT22;5197;48.152;8.590;2023-07-13T05:23:27;16.40;5.80
10304;DHT22;5197;48.152;8.590;2023-07-13T05:25:54;16.40;6.20
10304;DHT22;5197;48.152;8.590;2023-07-13T05:28:22;16.40;6.00
10304;DHT22;5197;48.152;8.590;2023-07-13T05:30:49;16.40;5.80
10304;DHT22;5197;48.152;8.590;2023-07-13T05:33:17;16.50;5.50
10304;DHT22;5197;48.152;8.590;2023-07-13T05:35:44;16.50;5.40
10304;DHT22;5197;48.152;8.590;2023-07-13T05:38:11;16.70;5.20
10304;DHT22;5197;48.152;8.590;2023-07-13T05:40:38;16.70;5.00
10304;DHT22;5197;48.152;8.590;2023-07-13T05:43:06;16.70;4.60
10304;DHT22;5197;48.152;8.590;2023-07-13T05:45:32;16.80;4.40
10304;DHT22;5197;48.152;8.590;2023-07-13T05:47:59;16.80;4.10
10304;DHT22;5197;48.152;8.590;2023-07-13T05:50:27;16.90;3.30
10304;DHT22;5197;48.152;8.590;2023-07-13T05:52:54;17.00;2.20
10304;DHT22;5197;48.152;8.590;2023-07-13T05:55:21;17.10;2.40
10304;DHT22;5197;48.152;8.590;2023-07-13T05:57:48;17.10;2.30
10304;DHT22;5197;48.152;8.590;2023-07-13T06:00:20;17.20;2.40
10304;DHT22;5197;48.152;8.590;2023-07-13T06:02:47;17.30;2.40
10304;DHT22;5197;48.152;8.590;2023-07-13T06:05:14;17.40;2.50
10304;DHT22;5197;48.152;8.590;2023-07-13T06:07:42;17.50;2.60
10304;DHT22;5197;48.152;8.590;2023-07-13T06:10:10;17.60;2.80
10304;DHT22;5197;48.152;8.590;2023-07-13T06:12:37;17.70;1.40
10304;DHT22;5197;48.152;8.590;2023-07-13T06:15:04;17.80;1.10
10304;DHT22;5197;48.152;8.590;2023-07-13T06:17:32;18.10;1.00
10304;DHT22;5197;48.152;8.590;2023-07-13T06:19:59;18.40;1.00
10304;DHT22;5197;48.152;8.590;2023-07-13T06:22:26;18.80;1.00
10304;DHT22;5197;48.152;8.590;2023-07-13T06:24:53;19.20;1.00
10304;DHT22;5197;48.152;8.590;2023-07-13T06:27:20;19.60;1.00
10304;DHT22;5197;48.152;8.590;2023-07-13T06:29:47;19.90;1.00
10304;DHT22;5197;48.152;8.590;2023-07-13T06:32:14;20.10;1.00
10304;DHT22;5197;48.152;8.590;2023-07-13T06:34:41;20.40;1.00
10304;DHT22;5197;48.152;8.590;2023-07-13T06:37:09;20.60;1.00
10304;DHT22;5197;48.152;8.590;2023-07-13T06:39:36;20.80;1.00
10304;DHT22;5197;48.152;8.590;2023-07-13T06:42:04;20.80;1.00
10304;DHT22;5197;48.152;8.590;2023-07-13T06:44:33;20.90;1.00
10304;DHT22;5197;48.152;8.590;2023-07-13T06:47:01;21.10;1.00
10304;DHT22;5197;48.152;8.590;2023-07-13T06:49:28;21.40;1.00
10304;DHT22;5197;48.152;8.590;2023-07-13T06:51:55;21.50;1.00
10304;DHT22;5197;48.152;8.590;2023-07-13T06:54:22;21.50;1.00
10304;DHT22;5197;48.152;8.590;2023-07-13T06:56:49;21.50;1.00
10304;DHT22;5197;48.152;8.590;2023-07-13T06:59:16;21.60;1.00
10304;DHT22;5197;48.152;8.590;2023-07-13T07:01:43;21.80;1.00
10304;DHT22;5197;48.152;8.590;2023-07-13T07:04:10;21.90;1.00
10304;DHT22;5197;48.152;8.590;2023-07-13T07:06:38;22.00;1.00
10304;DHT22;5197;48.152;8.590;2023-07-13T07:09:05;22.20;1.00
10304;DHT22;5197;48.152;8.590;2023-07-13T07:11:32;22.40;1.00
10304;DHT22;5197;48.152;8.590;2023-07-13T07:13:59;22.50;1.00
10304;DHT22;5197;48.152;8.590;2023-07-13T07:16:26;22.60;1.00
10304;DHT22;5197;48.152;8.590;2023-07-13T07:18:53;22.60;1.00
10304;DHT22;5197;48.152;8.590;2023-07-13T07:21:20;22.80;1.00
10304;DHT22;5197;48.152;8.590;2023-07-13T07:23:51;23.00;1.00
10304;DHT22;5197;48.152;8.590;2023-07-13T07:26:19;23.00;1.00
10304;DHT22;5197;48.152;8.590;2023-07-13T07:28:49;22.80;1.00
10304;DHT22;5197;48.152;8.590;2023-07-13T07:31:36;22.60;1.00
10304;DHT22;5197;48.152;8.590;2023-07-13T07:34:07;22.30;1.00
10304;DHT22;5197;48.152;8.590;2023-07-13T07:36:34;22.20;1.00
10304;DHT22;5197;48.152;8.590;2023-07-13T07:39:04;22.10;1.00
10304;DHT22;5197;48.152;8.590;2023-07-13T07:41:31;22.10;1.00
10304;DHT22;5197;48.152;8.590;2023-07-13T07:44:01;22.00;1.00
10304;DHT22;5197;48.152;8.590;2023-07-13T07:46:30;21.80;1.00
10304;DHT22;5197;48.152;8.590;2023-07-13T07:48:57;21.80;1.00
10304;DHT22;5197;48.152;8.590;2023-07-13T07:51:24;22.00;1.00
10304;DHT22;5197;48.152;8.590;2023-07-13T07:53:51;22.30;1.00
10304;DHT22;5197;48.152;8.590;2023-07-13T07:56:18;22.50;1.00
10304;DHT22;5197;48.152;8.590;2023-07-13T07:58:48;22.50;1.00
10304;DHT22;5197;48.152;8.590;2023-07-13T08:01:18;22.50;1.00
10304;DHT22;5197;48.152;8.590;2023-07-13T08:03:48;22.50;1.00
10304;DHT22;5197;48.152;8.590;2023-07-13T08:06:18;22.60;1.00
10304;DHT22;5197;48.152;8.590;2023-07-13T08:08:49;22.90;1.00
10304;DHT22;5197;48.152;8.590;2023-07-13T08:11:17;23.10;1.00
10304;DHT22;5197;48.152;8.590;2023-07-13T08:13:47;23.30;1.00
10304;DHT22;5197;48.152;8.590;2023-07-13T08:16:17;23.40;1.00
10304;DHT22;5197;48.152;8.590;2023-07-13T08:18:44;23.00;1.00
10304;DHT22;5197;48.152;8.590;2023-07-13T08:21:11;22.70;1.00
10304;DHT22;5197;48.152;8.590;2023-07-13T08:23:38;22.20;1.00
10304;DHT22;5197;48.152;8.590;2023-07-13T08:26:05;22.00;1.00
10304;DHT22;5197;48.152;8.590;2023-07-13T08:28:33;22.00;1.00
10304;DHT22;5197;48.152;8.590;2023-07-13T08:31:02;22.10;1.00
10304;DHT22;5197;48.152;8.590;2023-07-13T08:33:29;22.40;1.00
10304;DHT22;5197;48.152;8.590;2023-07-13T08:35:57;22.60;1.00
10304;DHT22;5197;48.152;8.590;2023-07-13T08:38:24;22.70;1.00
10304;DHT22;5197;48.152;8.590;2023-07-13T08:40:55;22.70;1.00
10304;DHT22;5197;48.152;8.590;2023-07-13T08:43:27;22.70;1.00
10304;DHT22;5197;48.152;8.590;2023-07-13T08:46:11;22.80;1.00
10304;DHT22;5197;48.152;8.590;2023-07-13T08:53:55;22.30;1.00
10304;DHT22;5197;48.152;8.590;2023-07-13T08:56:29;21.90;1.00
10304;DHT22;5197;48.152;8.590;2023-07-13T08:59:02;21.60;1.00
10304;DHT22;5197;48.152;8.590;2023-07-13T09:01:40;21.50;1.00
10304;DHT22;5197;48.152;8.590;2023-07-13T09:04:21;21.60;1.00
10304;DHT22;5197;48.152;8.590;2023-07-13T09:07:05;21.70;1.00
10304;DHT22;5197;48.152;8.590;2023-07-13T09:10:02;21.60;1.00
10304;DHT22;5197;48.152;8.590;2023-07-13T09:15:41;21.40;1.00
10304;DHT22;5197;48.152;8.590;2023-07-13T09:18:31;21.50;1.00
10304;DHT22;5197;48.152;8.590;2023-07-13T09:21:05;21.70;1.00
10304;DHT22;5197;48.152;8.590;2023-07-13T09:23:35;22.00;1.00
10304;DHT22;5197;48.152;8.590;2023-07-13T09:26:22;22.20;1.00
10304;DHT22;5197;48.152;8.590;2023-07-13T09:28:54;22.50;1.00
10304;DHT22;5197;48.152;8.590;2023-07-13T09:31:42;22.70;1.00
10304;DHT22;5197;48.152;8.590;2023-07-13T09:34:12;22.90;1.00
10304;DHT22;5197;48.152;8.590;2023-07-13T09:36:39;22.80;1.00
10304;DHT22;5197;48.152;8.590;2023-07-13T09:44:34;21.60;1.00
10304;DHT22;5197;48.152;8.590;2023-07-13T09:47:02;21.50;1.00
10304;DHT22;5197;48.152;8.590;2023-07-13T09:49:34;21.40;1.00
10304;DHT22;5197;48.152;8.590;2023-07-13T09:52:07;21.40;1.00
10304;DHT22;5197;48.152;8.590;2023-07-13T09:54:37;21.50;1.00
10304;DHT22;5197;48.152;8.590;2023-07-13T09:57:13;21.60;1.00
10304;DHT22;5197;48.152;8.590;2023-07-13T09:59:45;21.80;1.00
10304;DHT22;5197;48.152;8.590;2023-07-13T10:02:32;22.00;1.00
10304;DHT22;5197;48.152;8.590;2023-07-13T10:05:05;22.40;1.00
10304;DHT22;5197;48.152;8.590;2023-07-13T10:07:38;22.90;1.00
10304;DHT22;5197;48.152;8.590;2023-07-13T10:10:14;23.20;1.00
10304;DHT22;5197;48.152;8.590;2023-07-13T10:12:44;23.40;1.00
10304;DHT22;5197;48.152;8.590;2023-07-13T10:15:17;23.50;1.00
10304;DHT22;5197;48.152;8.590;2023-07-13T10:17:53;23.50;1.00
10304;DHT22;5197;48.152;8.590;2023-07-13T10:20:21;23.40;1.00
10304;DHT22;5197;48.152;8.590;2023-07-13T10:23:02;23.10;1.00
10304;DHT22;5197;48.152;8.590;2023-07-13T10:25:36;22.70;1.00
10304;DHT22;5197;48.152;8.590;2023-07-13T10:28:22;22.40;1.00
10304;DHT22;5197;48.152;8.590;2023-07-13T10:30:52;22.60;1.00
10304;DHT22;5197;48.152;8.590;2023-07-13T10:33:21;22.90;1.00
10304;DHT22;5197;48.152;8.590;2023-07-13T10:35:51;23.20;1.00
10304;DHT22;5197;48.152;8.590;2023-07-13T10:38:23;23.50;1.00
10304;DHT22;5197;48.152;8.590;2023-07-13T10:41:06;23.50;1.00
10304;DHT22;5197;48.152;8.590;2023-07-13T10:43:39;23.30;1.00
10304;DHT22;5197;48.152;8.590;2023-07-13T10:46:12;23.00;1.00
10304;DHT22;5197;48.152;8.590;2023-07-13T10:48:40;22.40;1.00
10304;DHT22;5197;48.152;8.590;2023-07-13T10:51:10;21.80;1.00
10304;DHT22;5197;48.152;8.590;2023-07-13T10:53:39;22.00;1.00
10304;DHT22;5197;48.152;8.590;2023-07-13T10:56:29;21.90;1.00
10304;DHT22;5197;48.152;8.590;2023-07-13T11:02:13;22.20;1.00
10304;DHT22;5197;48.152;8.590;2023-07-13T11:04:47;22.40;1.00
10304;DHT22;5197;48.152;8.590;2023-07-13T11:07:23;22.50;1.00
10304;DHT22;5197;48.152;8.590;2023-07-13T11:09:56;22.40;1.00
10304;DHT22;5197;48.152;8.590;2023-07-13T11:22:48;22.60;1.00
10304;DHT22;5197;48.152;8.590;2023-07-13T11:25:28;22.80;1.00
10304;DHT22;5197;48.152;8.590;2023-07-13T11:33:53;22.50;1.00
10304;DHT22;5197;48.152;8.590;2023-07-13T11:36:23;22.20;1.00
10304;DHT22;5197;48.152;8.590;2023-07-13T11:38:59;22.00;1.00
10304;DHT22;5197;48.152;8.590;2023-07-13T11:44:33;22.10;1.00
10304;DHT22;5197;48.152;8.590;2023-07-13T11:47:14;22.20;1.00
10304;DHT22;5197;48.152;8.590;2023-07-13T11:49:48;22.20;1.00
10304;DHT22;5197;48.152;8.590;2023-07-13T11:52:35;22.30;1.00
10304;DHT22;5197;48.152;8.590;2023-07-13T11:55:14;22.40;1.00
10304;DHT22;5197;48.152;8.590;2023-07-13T11:57:49;22.70;1.00
10304;DHT22;5197;48.152;8.590;2023-07-13T12:00:21;23.00;1.00
10304;DHT22;5197;48.152;8.590;2023-07-13T12:02:51;23.10;1.00
10304;DHT22;5197;48.152;8.590;2023-07-13T12:05:19;23.40;1.00
10304;DHT22;5197;48.152;8.590;2023-07-13T12:07:50;23.40;1.00
10304;DHT22;5197;48.152;8.590;2023-07-13T12:10:22;23.40;1.00
10304;DHT22;5197;48.152;8.590;2023-07-13T12:13:02;23.60;1.00
10304;DHT22;5197;48.152;8.590;2023-07-13T12:15:41;23.80;1.00
10304;DHT22;5197;48.152;8.590;2023-07-13T12:18:21;24.10;1.00
10304;DHT22;5197;48.152;8.590;2023-07-13T12:20:50;24.10;1.00
10304;DHT22;5197;48.152;8.590;2023-07-13T12:23:29;24.00;1.00
10304;DHT22;5197;48.152;8.590;2023-07-13T12:25:58;23.90;1.00
10304;DHT22;5197;48.152;8.590;2023-07-13T12:28:38;23.90;1.00
10304;DHT22;5197;48.152;8.590;2023-07-13T12:31:18;23.90;1.00
10304;DHT22;5197;48.152;8.590;2023-07-13T12:33:56;23.70;1.00
10304;DHT22;5197;48.152;8.590;2023-07-13T12:36:24;23.40;1.00
10304;DHT22;5197;48.152;8.590;2023-07-13T12:38:52;23.40;1.00
10304;DHT22;5197;48.152;8.590;2023-07-13T12:41:19;23.60;1.00
10304;DHT22;5197;48.152;8.590;2023-07-13T12:43:47;23.50;1.00
10304;DHT22;5197;48.152;8.590;2023-07-13T12:46:20;23.50;1.00
10304;DHT22;5197;48.152;8.590;2023-07-13T12:48:50;23.40;1.00
10304;DHT22;5197;48.152;8.590;2023-07-13T12:51:30;23.30;1.00
10304;DHT22;5197;48.152;8.590;2023-07-13T12:54:06;23.50;1.00
10304;DHT22;5197;48.152;8.590;2023-07-13T12:56:39;23.70;1.00
10304;DHT22;5197;48.152;8.590;2023-07-13T12:59:08;23.80;1.00
10304;DHT22;5197;48.152;8.590;2023-07-13T13:01:41;23.80;1.00
10304;DHT22;5197;48.152;8.590;2023-07-13T13:04:09;23.60;1.00
10304;DHT22;5197;48.152;8.590;2023-07-13T13:06:38;23.60;1.00
10304;DHT22;5197;48.152;8.590;2023-07-13T13:09:15;23.60;1.00
10304;DHT22;5197;48.152;8.590;2023-07-13T13:11:42;23.60;1.00
10304;DHT22;5197;48.152;8.590;2023-07-13T13:14:09;23.50;1.00
10304;DHT22;5197;48.152;8.590;2023-07-13T13:16:50;23.50;1.00
10304;DHT22;5197;48.152;8.590;2023-07-13T13:19:24;23.40;1.00
10304;DHT22;5197;48.152;8.590;2023-07-13T13:21:54;23.40;1.00
10304;DHT22;5197;48.152;8.590;2023-07-13T13:24:25;23.30;1.00
10304;DHT22;5197;48.152;8.590;2023-07-13T13:26:53;23.40;1.00
10304;DHT22;5197;48.152;8.590;2023-07-13T13:29:23;23.40;1.00
10304;DHT22;5197;48.152;8.590;2023-07-13T13:31:54;23.50;1.00
10304;DHT22;5197;48.152;8.590;2023-07-13T13:34:24;23.50;1.00
10304;DHT22;5197;48.152;8.590;2023-07-13T13:36:53;23.60;1.00
10304;DHT22;5197;48.152;8.590;2023-07-13T13:39:36;24.00;1.00
10304;DHT22;5197;48.152;8.590;2023-07-13T13:42:04;24.40;1.00
10304;DHT22;5197;48.152;8.590;2023-07-13T13:44:31;24.50;1.00
10304;DHT22;5197;48.152;8.590;2023-07-13T13:46:58;24.20;1.00
10304;DHT22;5197;48.152;8.590;2023-07-13T13:49:27;23.80;1.00
10304;DHT22;5197;48.152;8.590;2023-07-13T13:51:55;23.60;1.00
10304;DHT22;5197;48.152;8.590;2023-07-13T13:54:24;23.40;1.00
10304;DHT22;5197;48.152;8.590;2023-07-13T13:56:52;23.60;1.00
10304;DHT22;5197;48.152;8.590;2023-07-13T13:59:19;23.80;1.00
10304;DHT22;5197;48.152;8.590;2023-07-13T14:01:47;24.00;1.00
10304;DHT22;5197;48.152;8.590;2023-07-13T14:04:21;24.30;1.00
10304;DHT22;5197;48.152;8.590;2023-07-13T14:06:49;24.30;1.00
10304;DHT22;5197;48.152;8.590;2023-07-13T14:09:19;24.50;1.00
10304;DHT22;5197;48.152;8.590;2023-07-13T14:11:48;24.30;1.00
10304;DHT22;5197;48.152;8.590;2023-07-13T14:14:22;24.10;1.00
10304;DHT22;5197;48.152;8.590;2023-07-13T14:16:51;25.00;1.00
10304;DHT22;5197;48.152;8.590;2023-07-13T14:19:22;24.00;1.00
10304;DHT22;5197;48.152;8.590;2023-07-13T14:21:50;24.10;1.00
10304;DHT22;5197;48.152;8.590;2023-07-13T14:24:20;24.20;1.00
10304;DHT22;5197;48.152;8.590;2023-07-13T14:26:48;24.10;1.00
10304;DHT22;5197;48.152;8.590;2023-07-13T14:29:24;23.90;1.00
10304;DHT22;5197;48.152;8.590;2023-07-13T14:31:53;24.00;1.00
10304;DHT22;5197;48.152;8.590;2023-07-13T14:34:22;24.20;1.00
10304;DHT22;5197;48.152;8.590;2023-07-13T14:40:29;24.00;1.00
10304;DHT22;5197;48.152;8.590;2023-07-13T14:43:28;23.90;1.00
10304;DHT22;5197;48.152;8.590;2023-07-13T14:45:56;23.60;1.00
10304;DHT22;5197;48.152;8.590;2023-07-13T14:48:24;23.40;1.00
10304;DHT22;5197;48.152;8.590;2023-07-13T14:50:57;23.40;1.00
10304;DHT22;5197;48.152;8.590;2023-07-13T14:53:35;23.70;1.00
10304;DHT22;5197;48.152;8.590;2023-07-13T14:56:04;23.80;1.00
10304;DHT22;5197;48.152;8.590;2023-07-13T14:58:35;24.00;1.00
10304;DHT22;5197;48.152;8.590;2023-07-13T15:01:02;24.00;1.00
10304;DHT22;5197;48.152;8.590;2023-07-13T15:03:30;23.80;1.00
10304;DHT22;5197;48.152;8.590;2023-07-13T15:05:57;23.40;1.00
10304;DHT22;5197;48.152;8.590;2023-07-13T15:08:24;23.20;1.00
10304;DHT22;5197;48.152;8.590;2023-07-13T15:10:52;23.20;1.00
10304;DHT22;5197;48.152;8.590;2023-07-13T15:13:21;23.50;1.00
10304;DHT22;5197;48.152;8.590;2023-07-13T15:15:51;23.30;1.00
10304;DHT22;5197;48.152;8.590;2023-07-13T15:18:23;23.30;1.00
10304;DHT22;5197;48.152;8.590;2023-07-13T15:20:51;23.40;1.00
10304;DHT22;5197;48.152;8.590;2023-07-13T15:23:22;23.40;1.00
10304;DHT22;5197;48.152;8.590;2023-07-13T15:25:49;23.40;1.00
10304;DHT22;5197;48.152;8.590;2023-07-13T15:28:16;23.40;1.00
10304;DHT22;5197;48.152;8.590;2023-07-13T15:30:46;23.40;1.00
10304;DHT22;5197;48.152;8.590;2023-07-13T15:33:24;23.40;1.00
10304;DHT22;5197;48.152;8.590;2023-07-13T15:35:52;23.10;1.00
10304;DHT22;5197;48.152;8.590;2023-07-13T15:38:23;23.00;1.00
10304;DHT22;5197;48.152;8.590;2023-07-13T15:40:52;22.80;1.00
10304;DHT22;5197;48.152;8.590;2023-07-13T15:43:20;22.80;1.00
10304;DHT22;5197;48.152;8.590;2023-07-13T15:45:47;22.80;1.00
10304;DHT22;5197;48.152;8.590;2023-07-13T15:48:21;22.90;1.00
10304;DHT22;5197;48.152;8.590;2023-07-13T15:50:53;22.80;1.00
10304;DHT22;5197;48.152;8.590;2023-07-13T15:53:27;22.70;1.00
10304;DHT22;5197;48.152;8.590;2023-07-13T15:55:56;22.70;1.00
10304;DHT22;5197;48.152;8.590;2023-07-13T15:58:24;22.50;1.00
10304;DHT22;5197;48.152;8.590;2023-07-13T16:00:52;22.60;1.00
10304;DHT22;5197;48.152;8.590;2023-07-13T16:03:21;22.50;1.00
10304;DHT22;5197;48.152;8.590;2023-07-13T16:05:49;22.60;1.00
10304;DHT22;5197;48.152;8.590;2023-07-13T16:08:25;22.70;1.00
10304;DHT22;5197;48.152;8.590;2023-07-13T16:10:55;22.90;1.00
10304;DHT22;5197;48.152;8.590;2023-07-13T16:13:23;23.10;1.00
10304;DHT22;5197;48.152;8.590;2023-07-13T16:15:53;23.10;1.00
10304;DHT22;5197;48.152;8.590;2023-07-13T16:18:23;23.00;1.00
10304;DHT22;5197;48.152;8.590;2023-07-13T16:20:50;22.90;1.00
10304;DHT22;5197;48.152;8.590;2023-07-13T16:23:19;23.00;1.00
10304;DHT22;5197;48.152;8.590;2023-07-13T16:25:48;22.90;1.00
10304;DHT22;5197;48.152;8.590;2023-07-13T16:28:16;22.90;1.00
10304;DHT22;5197;48.152;8.590;2023-07-13T16:30:43;22.70;1.00
10304;DHT22;5197;48.152;8.590;2023-07-13T16:33:10;22.70;1.00
10304;DHT22;5197;48.152;8.590;2023-07-13T16:35:39;22.70;1.00
10304;DHT22;5197;48.152;8.590;2023-07-13T16:38:18;22.70;1.00
10304;DHT22;5197;48.152;8.590;2023-07-13T16:40:46;22.60;1.00
10304;DHT22;5197;48.152;8.590;2023-07-13T16:43:18;22.60;1.00
10304;DHT22;5197;48.152;8.590;2023-07-13T16:45:50;22.60;1.00
10304;DHT22;5197;48.152;8.590;2023-07-13T16:48:20;22.60;1.00
10304;DHT22;5197;48.152;8.590;2023-07-13T16:50:54;22.50;1.00
10304;DHT22;5197;48.152;8.590;2023-07-13T16:53:25;22.40;1.00
10304;DHT22;5197;48.152;8.590;2023-07-13T16:55:53;22.50;1.00
10304;DHT22;5197;48.152;8.590;2023-07-13T16:58:25;22.50;1.00
10304;DHT22;5197;48.152;8.590;2023-07-13T17:00:53;22.60;1.00